Latest Coastal Weather Observations for Montague Island

IDN60701

Issued at 3:12 pm EDT Monday 19 February 2018 (issued every 10 minutes, with the page automatically refreshed every 10 minutes)

About coastal observations | Map of coastal stations | Coastal observations for NSW | Marine services | Other Formats
Station Details ID: 069017 Name: MONTAGUE ISLAND LIGHTHOUSE Lat: -36.25 Lon: 150.23 Height: 52.0 m
Data from the previous 72 hours. | See also: Recent months at Montague Island
Date/Time
EDT
Temp
°C
Wind Pressure Rain since
9am
mm
Weather Cloud Vis
km
Sea
Height
m
Swell
Dir  Spd
kts
Gust
kts
hPa Trend Height
m
Period
s
Dir
19/03:00pm 19.6 SSE 11 15 1015.2 - 26.0 Rain - - - - - -
19/02:30pm 19.5 S 10 14 1015.3 - 24.6 - - - - - - -
19/02:00pm 19.4 S 14 18 1015.5 - 21.8 - - - - - - -
19/01:30pm 20.5 SSW 14 18 1015.0 - 20.6 - - - - - - -
19/01:00pm 20.3 S 16 20 1014.8 - 20.6 - - - - - - -
19/12:30pm 19.4 S 17 21 1014.9 - 20.6 - - - - - - -
19/12:00pm 19.6 S 20 23 1014.6 - 19.4 Rain - - - - - -
19/11:30am 19.5 S 18 23 1014.4 - 17.6 - - - - - - -
19/11:00am 18.8 SW 17 21 1014.5 - 14.2 - - - - - - -
19/10:30am 19.1 SW 14 18 1014.7 - 5.2 - - - - - - -
19/10:00am 18.8 SW 13 17 1014.6 - 3.8 - - - - - - -
19/09:30am 19.2 SW 13 17 1014.5 - 0.8 - - - - - - -
19/09:00am 19.8 SSW 17 21 1013.7 - 7.4 Rain - - - - - -
19/08:30am 20.3 SSW 17 23 1013.6 - 2.6 - - - - - - -
19/08:00am 20.6 SSW 16 22 1013.0 - 0.8 - - - - - - -
19/07:30am 20.6 S 17 22 1012.7 - 0.6 - - - - - - -
19/07:00am 20.7 SSW 16 18 1013.0 - 0.6 - - - - - - -
19/06:30am 20.7 S 13 17 1012.7 - 0.6 - - - - - - -
19/06:00am 20.8 S 13 17 1012.6 - 0.6 Recent precip. - - - - - -
19/05:30am 20.8 SSW 11 15 1012.5 - 0.6 - - - - - - -
19/05:00am 21.3 SW 9 12 1011.9 - 0.0 - - - - - - -
19/04:30am 22.0 WNW 1 4 1012.0 - 0.0 - - - - - - -
19/04:00am 22.2 ENE 7 8 1011.8 - 0.0 - - - - - - -
19/03:30am 22.2 ENE 7 8 1011.7 - 0.0 - - - - - - -
19/03:00am 22.2 ENE 7 8 1012.1 - 0.0 - - - - - - -
19/02:30am 22.3 ENE 7 9 1012.2 - 0.0 - - - - - - -
19/02:00am 22.4 ENE 8 9 1012.4 - 0.0 - - - - - - -
19/01:30am 22.5 E 8 9 1012.7 - 0.0 - - - - - - -
19/01:00am 22.6 E 8 9 1012.9 - 0.0 - - - - - - -
19/12:30am 22.7 ENE 8 9 1013.0 - 0.0 - - - - - - -
19/12:00am 22.7 E 8 9 1012.9 - 0.0 - - - - - - -
 
Date/Time
EDT
Temp
°C
Wind Pressure Rain since
9am
mm
Weather Cloud Vis
km
Sea
Height
m
Swell
Dir  Spd
kts
Gust
kts
hPa Trend Height
m
Period
s
Dir
18/11:30pm 22.8 E 8 9 1012.9 - 0.0 - - - - - - -
18/11:00pm 22.8 ENE 8 10 1012.9 - 0.0 - - - - - - -
18/10:30pm 22.9 E 6 8 1013.2 - 0.0 - - - - - - -
18/10:00pm 22.9 E 6 7 1012.9 - 0.0 - - - - - - -
18/09:30pm 22.9 ENE 7 9 1012.6 - 0.0 - - - - - - -
18/09:00pm 22.9 E 6 8 1012.1 - 0.0 - - - - - - -
18/08:30pm 22.9 E 7 8 1011.8 - 0.0 - - - - - - -
18/08:00pm 23.0 E 7 8 1011.5 - 0.0 - - - - - - -
18/07:30pm 23.1 E 7 8 1011.2 - 0.0 - - - - - - -
18/07:00pm 23.2 E 6 8 1011.1 - 0.0 - - - - - - -
18/06:30pm 23.4 E 6 7 1010.9 - 0.0 - - - - - - -
18/06:00pm 23.9 E 7 8 1010.6 - 0.0 - - - - - - -
18/05:30pm 24.5 ENE 6 8 1010.7 - 0.0 - - - - - - -
18/05:00pm 24.0 ENE 6 7 1010.7 - 0.0 - - - - - - -
18/04:30pm 24.4 NE 6 8 1010.5 - 0.0 - - - - - - -
18/04:00pm 24.4 NE 7 9 1010.5 - 0.0 - - - - - - -
18/03:30pm 25.1 ENE 7 8 1010.5 - 0.0 - - - - - - -
18/03:00pm 25.2 ENE 6 7 1010.7 - 0.0 - - - - - - -
18/02:30pm 25.3 ENE 7 8 1010.7 - 0.0 - - - - - - -
18/02:00pm 25.1 ENE 6 7 1011.0 - 0.0 - - - - - - -
18/01:30pm 24.9 ENE 6 8 1011.3 - 0.0 - - - - - - -
18/01:00pm 24.1 ENE 6 8 1011.4 - 0.0 - - - - - - -
18/12:30pm 24.2 ENE 6 8 1011.5 - 0.0 - - - - - - -
18/12:00pm 23.0 NE 6 7 1011.7 - 0.0 - - - - - - -
18/11:30am 23.3 NE 5 7 1012.0 - 0.0 - - - - - - -
18/11:00am 23.8 NE 3 5 1012.2 - 0.0 - - - - - - -
18/10:30am 23.4 NE 3 5 1012.1 - 0.0 - - - - - - -
18/10:00am 22.4 NW 3 5 1012.2 - 0.0 - - - - - - -
18/09:30am 22.4 NW 3 4 1012.2 - 0.0 - - - - - - -
18/09:00am 21.4 NW 3 5 1012.2 - 0.0 - - - - - - -
18/08:30am 21.3 NW 1 5 1012.0 - 0.0 - - - - - - -
18/08:00am 20.8 W 3 4 1012.1 - 0.0 - - - - - - -
18/07:30am 20.1 W 2 3 1011.7 - 0.0 - - - - - - -
18/07:00am 19.5 W 3 4 1011.6 - 0.0 - - - - - - -
18/06:30am 19.6 W 3 4 1011.5 - 0.0 - - - - - - -
18/06:00am 19.9 W 3 4 1011.3 - 0.0 - - - - - - -
18/05:30am 20.0 W 3 4 1011.4 - 0.0 - - - - - - -
18/05:00am 20.1 W 2 2 1011.3 - 0.0 - - - - - - -
18/04:30am 20.2 WNW 3 4 1011.4 - 0.0 - - - - - - -
18/04:00am 20.2 CALM 0 1 1011.3 - 0.0 - - - - - - -
18/03:30am 20.7 WNW 1 2 1011.2 - 0.0 - - - - - - -
18/03:00am 20.6 CALM 0 0 1011.3 - 0.0 - - - - - - -
18/02:30am 20.4 WNW 3 4 1011.3 - 0.0 - - - - - - -
18/02:00am 20.9 NW 4 5 1011.5 - 0.0 - - - - - - -
18/01:30am 21.2 NNW 5 7 1011.6 - 0.0 - - - - - - -
18/01:00am 21.3 N 6 8 1011.9 - 0.0 - - - - - - -
18/12:30am 21.9 N 10 13 1012.2 - 0.0 - - - - - - -
18/12:00am 22.4 NNE 12 15 1012.2 - 0.0 - - - - - - -
 
Date/Time
EDT
Temp
°C
Wind Pressure Rain since
9am
mm
Weather Cloud Vis
km
Sea
Height
m
Swell
Dir  Spd
kts
Gust
kts
hPa Trend Height
m
Period
s
Dir
17/11:30pm 22.7 NNE 12 14 1012.4 - 0.0 - - - - - - -
17/11:00pm 22.6 NNE 11 13 1012.6 - 0.0 - - - - - - -
17/10:30pm 22.7 NNE 11 13 1012.8 - 0.0 - - - - - - -
17/10:00pm 22.8 NNE 11 14 1013.0 - 0.0 - - - - - - -
17/09:30pm 22.7 NNE 10 12 1012.8 - 0.0 - - - - - - -
17/09:00pm 22.6 NNE 11 14 1012.1 - 0.0 - - - - - - -
17/08:30pm 22.7 NNE 12 15 1011.7 - 0.0 - - - - - - -
17/08:00pm 22.7 NNE 11 14 1011.6 - 0.0 - - - - - - -
17/07:30pm 22.8 NNE 13 16 1011.1 - 0.0 - - - - - - -
17/07:00pm 22.8 NNE 12 16 1011.0 - 0.0 - - - - - - -
17/06:30pm 22.9 NNE 14 17 1010.6 - 0.0 - - - - - - -
17/06:00pm 22.9 NNE 15 18 1010.6 - 0.0 - - - - - - -
17/05:30pm 23.0 NNE 14 18 1010.5 - 0.0 - - - - - - -
17/05:00pm 23.0 NNE 16 20 1010.1 - 0.0 - - - - - - -
17/04:30pm 23.3 NNE 16 19 1010.2 - 0.0 - - - - - - -
17/04:00pm 23.6 NNE 14 17 1010.5 - 0.0 - - - - - - -
17/03:30pm 23.7 NNE 15 20 1010.7 - 0.0 - - - - - - -
17/03:00pm 23.5 NNE 13 18 1010.8 - 0.0 - - - - - - -
17/02:30pm 23.6 NNE 15 18 1011.1 - 0.0 - - - - - - -
17/02:00pm 23.7 NE 14 18 1011.3 - 0.0 - - - - - - -
17/01:30pm 23.7 NE 13 17 1011.6 - 0.0 - - - - - - -
17/01:00pm 23.3 NNE 13 17 1012.0 - 0.0 - - - - - - -
17/12:30pm 23.8 NNE 11 15 1012.4 - 0.0 - - - - - - -
17/12:00pm 23.4 NNE 13 16 1013.0 - 0.0 - - - - - - -
17/11:30am 22.9 N 15 17 1013.3 - 0.0 - - - - - - -
17/11:00am 22.3 N 13 15 1013.6 - 0.0 - - - - - - -
17/10:30am 22.5 N 10 13 1013.9 - 0.0 - - - - - - -
17/10:00am 21.7 N 8 11 1014.2 - 0.0 - - - - - - -
17/09:30am 21.4 NNW 7 11 1014.2 - 0.0 - - - - - - -
17/09:00am 20.9 N 8 10 1014.1 - 0.0 - - - - - - -
17/08:30am 20.1 N 7 10 1014.4 - 0.0 - - - - - - -
17/08:00am 20.1 N 7 10 1014.4 - 0.0 - - - - - - -
17/07:30am 19.7 N 6 8 1014.4 - 0.0 - - - - - - -
17/07:00am 19.5 N 6 8 1014.3 - 0.0 - - - - - - -
17/06:30am 19.0 N 6 7 1014.1 - 0.0 - - - - - - -
17/06:00am 19.0 N 6 7 1013.9 - 0.0 - - - - - - -
17/05:30am 19.0 NNW 5 7 1014.0 - 0.0 - - - - - - -
17/05:00am 19.1 NW 5 7 1014.0 - 0.0 - - - - - - -
17/04:30am 19.1 NW 4 6 1014.1 - 0.0 - - - - - - -
17/04:00am 19.3 NW 5 7 1014.1 - 0.0 - - - - - - -
17/03:30am 19.7 NW 4 7 1014.2 - 0.0 - - - - - - -
17/03:00am 19.3 NNE 6 9 1014.5 - 0.0 - - - - - - -
17/02:30am 19.2 NE 6 8 1014.6 - 0.0 - - - - - - -
17/02:00am 19.6 NE 6 9 1014.7 - 0.0 - - - - - - -
17/01:30am 19.8 ENE 5 8 1014.7 - 0.0 - - - - - - -
17/01:00am 19.6 ENE 4 7 1014.8 - 0.0 - - - - - - -
17/12:30am 19.8 E 5 8 1014.9 - 0.0 - - - - - - -
17/12:00am 19.6 E 6 8 1014.9 - 0.0 - - - - - - -
 
Date/Time
EDT
Temp
°C
Wind Pressure Rain since
9am
mm
Weather Cloud Vis
km
Sea
Height
m
Swell
Dir  Spd
kts
Gust
kts
hPa Trend Height
m
Period
s
Dir
16/11:30pm 19.7 ESE 5 8 1015.0 - 0.0 - - - - - - -
16/11:00pm 19.7 ESE 7 9 1015.0 - 0.0 - - - - - - -
16/10:30pm 20.0 ESE 8 10 1015.1 - 0.0 - - - - - - -
16/10:00pm 19.8 ESE 9 11 1014.9 - 0.0 - - - - - - -
16/09:30pm 19.9 ESE 9 10 1014.8 - 0.0 - - - - - - -
16/09:00pm 20.1 ESE 8 11 1014.4 - 0.0 - - - - - - -
16/08:30pm 20.2 SE 9 11 1014.0 - 0.0 - - - - - - -
16/08:00pm 20.0 ESE 9 11 1013.5 - 0.0 - - - - - - -
16/07:30pm 19.9 SE 10 11 1013.0 - 0.0 - - - - - - -
16/07:00pm 20.1 SE 10 12 1012.6 - 0.0 - - - - - - -
16/06:30pm 20.3 SE 10 11 1012.2 - 0.0 - - - - - - -
16/06:00pm 20.5 ESE 9 10 1012.0 - 0.0 - - - - - - -
16/05:30pm 20.6 SE 8 11 1011.7 - 0.0 - - - - - - -
16/05:00pm 20.8 SE 10 12 1011.7 - 0.0 - - - - - - -
16/04:30pm 21.0 SE 10 12 1011.8 - 0.0 - - - - - - -
16/04:00pm 21.1 SE 11 13 1011.6 - 0.0 - - - - - - -
16/03:30pm 21.4 SE 11 13 1011.6 - 0.0 - - - - - - -

Other Formats:

Comma delimited format used in spreadsheet applications
http://www.bom.gov.au/fwo/IDN60701/IDN60701.94939.axf

JavaScript Object Notation format (JSON) in row-major order
http://www.bom.gov.au/fwo/IDN60701/IDN60701.94939.json